sensor_id;sensor_type;location;lat;lon;timestamp;P1;durP1;ratioP1;P2;durP2;ratioP2
54005;SDS011;39919;38.160;-122.260;2023-04-25T00:01:18;10.07;;;1.27;;
54005;SDS011;39919;38.160;-122.260;2023-04-25T00:03:48;8.23;;;1.48;;
54005;SDS011;39919;38.160;-122.260;2023-04-25T00:06:18;8.32;;;1.60;;
54005;SDS011;39919;38.160;-122.260;2023-04-25T00:08:49;8.18;;;1.50;;
54005;SDS011;39919;38.160;-122.260;2023-04-25T00:11:18;11.30;;;1.70;;
54005;SDS011;39919;38.160;-122.260;2023-04-25T00:13:47;10.38;;;1.48;;
54005;SDS011;39919;38.160;-122.260;2023-04-25T00:16:17;10.30;;;2.00;;
54005;SDS011;39919;38.160;-122.260;2023-04-25T00:18:47;17.65;;;2.83;;
54005;SDS011;39919;38.160;-122.260;2023-04-25T00:21:19;9.85;;;2.55;;
54005;SDS011;39919;38.160;-122.260;2023-04-25T00:23:51;10.60;;;1.98;;
54005;SDS011;39919;38.160;-122.260;2023-04-25T00:26:21;12.20;;;1.98;;
54005;SDS011;39919;38.160;-122.260;2023-04-25T00:28:50;13.38;;;1.88;;
54005;SDS011;39919;38.160;-122.260;2023-04-25T00:31:20;12.57;;;2.05;;
54005;SDS011;39919;38.160;-122.260;2023-04-25T00:33:49;8.10;;;1.65;;
54005;SDS011;39919;38.160;-122.260;2023-04-25T00:36:18;10.68;;;1.70;;
54005;SDS011;39919;38.160;-122.260;2023-04-25T00:38:48;7.20;;;1.67;;
54005;SDS011;39919;38.160;-122.260;2023-04-25T00:41:19;10.82;;;1.38;;
54005;SDS011;39919;38.160;-122.260;2023-04-25T00:43:48;12.98;;;2.22;;
54005;SDS011;39919;38.160;-122.260;2023-04-25T00:46:18;10.63;;;1.70;;
54005;SDS011;39919;38.160;-122.260;2023-04-25T00:48:47;7.13;;;1.25;;
54005;SDS011;39919;38.160;-122.260;2023-04-25T00:51:19;10.27;;;1.58;;
54005;SDS011;39919;38.160;-122.260;2023-04-25T00:53:49;12.02;;;1.80;;
54005;SDS011;39919;38.160;-122.260;2023-04-25T00:56:20;13.00;;;3.17;;
54005;SDS011;39919;38.160;-122.260;2023-04-25T00:58:50;9.73;;;1.30;;
54005;SDS011;39919;38.160;-122.260;2023-04-25T01:01:22;14.85;;;1.67;;
54005;SDS011;39919;38.160;-122.260;2023-04-25T01:03:51;10.38;;;1.77;;
54005;SDS011;39919;38.160;-122.260;2023-04-25T01:06:22;8.38;;;1.30;;
54005;SDS011;39919;38.160;-122.260;2023-04-25T01:08:54;16.02;;;1.98;;
54005;SDS011;39919;38.160;-122.260;2023-04-25T01:11:25;13.70;;;1.90;;
54005;SDS011;39919;38.160;-122.260;2023-04-25T01:13:55;14.02;;;2.60;;
54005;SDS011;39919;38.160;-122.260;2023-04-25T01:16:27;12.55;;;2.13;;
54005;SDS011;39919;38.160;-122.260;2023-04-25T01:18:57;13.32;;;1.88;;
54005;SDS011;39919;38.160;-122.260;2023-04-25T01:21:28;9.77;;;1.70;;
54005;SDS011;39919;38.160;-122.260;2023-04-25T01:24:00;12.18;;;2.15;;
54005;SDS011;39919;38.160;-122.260;2023-04-25T01:26:33;14.48;;;2.22;;
54005;SDS011;39919;38.160;-122.260;2023-04-25T01:29:05;10.55;;;2.33;;
54005;SDS011;39919;38.160;-122.260;2023-04-25T01:31:35;20.48;;;3.28;;
54005;SDS011;39919;38.160;-122.260;2023-04-25T01:34:05;11.18;;;2.03;;
54005;SDS011;39919;38.160;-122.260;2023-04-25T01:36:45;14.27;;;2.75;;
54005;SDS011;39919;38.160;-122.260;2023-04-25T01:39:18;9.38;;;1.30;;
54005;SDS011;39919;38.160;-122.260;2023-04-25T01:41:48;13.10;;;1.92;;
54005;SDS011;39919;38.160;-122.260;2023-04-25T01:44:18;13.05;;;2.60;;
54005;SDS011;39919;38.160;-122.260;2023-04-25T01:46:47;14.60;;;2.10;;
54005;SDS011;39919;38.160;-122.260;2023-04-25T01:49:16;14.65;;;2.05;;
54005;SDS011;39919;38.160;-122.260;2023-04-25T01:51:48;8.75;;;1.80;;
54005;SDS011;39919;38.160;-122.260;2023-04-25T01:54:17;10.10;;;1.48;;
54005;SDS011;39919;38.160;-122.260;2023-04-25T01:56:50;11.35;;;2.72;;
54005;SDS011;39919;38.160;-122.260;2023-04-25T01:59:22;10.93;;;2.13;;
54005;SDS011;39919;38.160;-122.260;2023-04-25T02:01:54;10.27;;;1.52;;
54005;SDS011;39919;38.160;-122.260;2023-04-25T02:04:23;11.18;;;1.92;;
54005;SDS011;39919;38.160;-122.260;2023-04-25T02:06:54;15.75;;;1.98;;
54005;SDS011;39919;38.160;-122.260;2023-04-25T02:09:23;13.45;;;1.67;;
54005;SDS011;39919;38.160;-122.260;2023-04-25T02:11:52;9.68;;;1.92;;
54005;SDS011;39919;38.160;-122.260;2023-04-25T02:14:23;11.13;;;2.08;;
54005;SDS011;39919;38.160;-122.260;2023-04-25T02:16:58;11.65;;;2.25;;
54005;SDS011;39919;38.160;-122.260;2023-04-25T02:19:36;18.38;;;2.88;;
54005;SDS011;39919;38.160;-122.260;2023-04-25T02:22:07;14.00;;;1.77;;
54005;SDS011;39919;38.160;-122.260;2023-04-25T02:24:50;15.73;;;2.05;;
54005;SDS011;39919;38.160;-122.260;2023-04-25T02:27:22;11.13;;;1.75;;
54005;SDS011;39919;38.160;-122.260;2023-04-25T02:29:51;14.05;;;2.90;;
54005;SDS011;39919;38.160;-122.260;2023-04-25T02:32:20;9.75;;;1.55;;
54005;SDS011;39919;38.160;-122.260;2023-04-25T02:34:52;13.25;;;1.58;;
54005;SDS011;39919;38.160;-122.260;2023-04-25T02:37:26;12.48;;;2.25;;
54005;SDS011;39919;38.160;-122.260;2023-04-25T02:39:55;11.60;;;1.65;;
54005;SDS011;39919;38.160;-122.260;2023-04-25T02:45:13;13.65;;;1.90;;
54005;SDS011;39919;38.160;-122.260;2023-04-25T02:47:42;10.07;;;1.80;;
54005;SDS011;39919;38.160;-122.260;2023-04-25T02:50:12;17.33;;;1.60;;
54005;SDS011;39919;38.160;-122.260;2023-04-25T02:52:43;12.10;;;1.77;;
54005;SDS011;39919;38.160;-122.260;2023-04-25T02:55:15;15.07;;;1.58;;
54005;SDS011;39919;38.160;-122.260;2023-04-25T02:57:57;15.77;;;1.95;;
54005;SDS011;39919;38.160;-122.260;2023-04-25T03:00:26;17.90;;;2.60;;
54005;SDS011;39919;38.160;-122.260;2023-04-25T03:05:54;13.95;;;1.27;;
54005;SDS011;39919;38.160;-122.260;2023-04-25T03:08:25;15.15;;;1.67;;
54005;SDS011;39919;38.160;-122.260;2023-04-25T03:11:01;15.30;;;1.75;;
54005;SDS011;39919;38.160;-122.260;2023-04-25T03:13:30;19.23;;;2.17;;
54005;SDS011;39919;38.160;-122.260;2023-04-25T03:15:59;13.18;;;2.05;;
54005;SDS011;39919;38.160;-122.260;2023-04-25T03:18:33;13.15;;;1.98;;
54005;SDS011;39919;38.160;-122.260;2023-04-25T03:21:03;18.13;;;2.53;;
54005;SDS011;39919;38.160;-122.260;2023-04-25T03:23:34;8.63;;;1.75;;
54005;SDS011;39919;38.160;-122.260;2023-04-25T03:26:03;13.23;;;1.98;;
54005;SDS011;39919;38.160;-122.260;2023-04-25T03:28:32;13.98;;;2.13;;
54005;SDS011;39919;38.160;-122.260;2023-04-25T03:31:02;14.25;;;1.98;;
54005;SDS011;39919;38.160;-122.260;2023-04-25T03:33:31;15.10;;;2.03;;
54005;SDS011;39919;38.160;-122.260;2023-04-25T03:36:00;12.15;;;1.67;;
54005;SDS011;39919;38.160;-122.260;2023-04-25T03:38:30;8.75;;;1.85;;
54005;SDS011;39919;38.160;-122.260;2023-04-25T03:41:00;10.65;;;1.80;;
54005;SDS011;39919;38.160;-122.260;2023-04-25T03:43:30;21.60;;;2.58;;
54005;SDS011;39919;38.160;-122.260;2023-04-25T03:45:59;9.23;;;2.03;;
54005;SDS011;39919;38.160;-122.260;2023-04-25T03:48:31;18.02;;;2.85;;
54005;SDS011;39919;38.160;-122.260;2023-04-25T03:51:01;12.77;;;1.63;;
54005;SDS011;39919;38.160;-122.260;2023-04-25T03:53:30;19.00;;;3.22;;
54005;SDS011;39919;38.160;-122.260;2023-04-25T03:56:01;9.60;;;1.92;;
54005;SDS011;39919;38.160;-122.260;2023-04-25T03:58:31;14.35;;;2.55;;
54005;SDS011;39919;38.160;-122.260;2023-04-25T04:01:00;15.13;;;2.25;;
54005;SDS011;39919;38.160;-122.260;2023-04-25T04:03:33;15.35;;;2.55;;
54005;SDS011;39919;38.160;-122.260;2023-04-25T04:06:02;16.05;;;2.90;;
54005;SDS011;39919;38.160;-122.260;2023-04-25T04:08:32;19.58;;;2.53;;
54005;SDS011;39919;38.160;-122.260;2023-04-25T04:11:03;14.27;;;2.65;;
54005;SDS011;39919;38.160;-122.260;2023-04-25T04:13:32;14.93;;;2.00;;
54005;SDS011;39919;38.160;-122.260;2023-04-25T04:16:02;19.38;;;2.08;;
54005;SDS011;39919;38.160;-122.260;2023-04-25T04:18:31;13.15;;;1.67;;
54005;SDS011;39919;38.160;-122.260;2023-04-25T04:21:02;12.15;;;1.80;;
54005;SDS011;39919;38.160;-122.260;2023-04-25T04:23:32;15.82;;;2.40;;
54005;SDS011;39919;38.160;-122.260;2023-04-25T04:26:04;19.08;;;2.30;;
54005;SDS011;39919;38.160;-122.260;2023-04-25T04:28:34;16.52;;;3.05;;
54005;SDS011;39919;38.160;-122.260;2023-04-25T04:31:03;12.55;;;2.28;;
54005;SDS011;39919;38.160;-122.260;2023-04-25T04:33:33;14.07;;;1.73;;
54005;SDS011;39919;38.160;-122.260;2023-04-25T04:36:02;11.15;;;1.60;;
54005;SDS011;39919;38.160;-122.260;2023-04-25T04:38:33;13.43;;;1.55;;
54005;SDS011;39919;38.160;-122.260;2023-04-25T04:41:04;17.48;;;2.28;;
54005;SDS011;39919;38.160;-122.260;2023-04-25T04:43:33;15.82;;;2.65;;
54005;SDS011;39919;38.160;-122.260;2023-04-25T04:46:03;9.27;;;2.03;;
54005;SDS011;39919;38.160;-122.260;2023-04-25T04:48:32;17.02;;;2.28;;
54005;SDS011;39919;38.160;-122.260;2023-04-25T04:51:01;15.30;;;2.78;;
54005;SDS011;39919;38.160;-122.260;2023-04-25T04:53:30;21.02;;;3.22;;
54005;SDS011;39919;38.160;-122.260;2023-04-25T04:56:00;16.63;;;1.98;;
54005;SDS011;39919;38.160;-122.260;2023-04-25T04:58:31;12.38;;;2.03;;
54005;SDS011;39919;38.160;-122.260;2023-04-25T05:01:02;15.45;;;1.90;;
54005;SDS011;39919;38.160;-122.260;2023-04-25T05:03:31;22.98;;;2.67;;
54005;SDS011;39919;38.160;-122.260;2023-04-25T05:06:00;20.88;;;3.47;;
54005;SDS011;39919;38.160;-122.260;2023-04-25T05:08:31;17.02;;;2.90;;
54005;SDS011;39919;38.160;-122.260;2023-04-25T05:11:00;15.52;;;2.35;;
54005;SDS011;39919;38.160;-122.260;2023-04-25T05:13:31;17.23;;;1.92;;
54005;SDS011;39919;38.160;-122.260;2023-04-25T05:16:00;16.98;;;1.88;;
54005;SDS011;39919;38.160;-122.260;2023-04-25T05:18:30;22.33;;;2.53;;
54005;SDS011;39919;38.160;-122.260;2023-04-25T05:20:59;21.35;;;2.65;;
54005;SDS011;39919;38.160;-122.260;2023-04-25T05:23:28;28.45;;;3.58;;
54005;SDS011;39919;38.160;-122.260;2023-04-25T05:25:58;18.88;;;2.70;;
54005;SDS011;39919;38.160;-122.260;2023-04-25T05:28:28;20.85;;;2.92;;
54005;SDS011;39919;38.160;-122.260;2023-04-25T05:31:15;20.10;;;2.75;;
54005;SDS011;39919;38.160;-122.260;2023-04-25T05:33:44;22.33;;;3.22;;
54005;SDS011;39919;38.160;-122.260;2023-04-25T05:36:14;27.35;;;4.13;;
54005;SDS011;39919;38.160;-122.260;2023-04-25T05:38:43;20.13;;;3.05;;
54005;SDS011;39919;38.160;-122.260;2023-04-25T05:41:12;26.30;;;3.20;;
54005;SDS011;39919;38.160;-122.260;2023-04-25T05:43:43;23.48;;;3.90;;
54005;SDS011;39919;38.160;-122.260;2023-04-25T05:46:14;30.77;;;4.82;;
54005;SDS011;39919;38.160;-122.260;2023-04-25T05:48:43;15.30;;;2.58;;
54005;SDS011;39919;38.160;-122.260;2023-04-25T05:51:13;12.70;;;2.63;;
54005;SDS011;39919;38.160;-122.260;2023-04-25T05:53:44;23.20;;;3.50;;
54005;SDS011;39919;38.160;-122.260;2023-04-25T05:56:13;17.63;;;2.85;;
54005;SDS011;39919;38.160;-122.260;2023-04-25T05:58:44;21.50;;;2.55;;
54005;SDS011;39919;38.160;-122.260;2023-04-25T06:01:13;18.17;;;3.28;;
54005;SDS011;39919;38.160;-122.260;2023-04-25T06:03:43;19.65;;;4.05;;
54005;SDS011;39919;38.160;-122.260;2023-04-25T06:06:12;12.50;;;1.50;;
54005;SDS011;39919;38.160;-122.260;2023-04-25T06:08:42;14.38;;;2.00;;
54005;SDS011;39919;38.160;-122.260;2023-04-25T06:11:14;17.95;;;2.40;;
54005;SDS011;39919;38.160;-122.260;2023-04-25T06:13:53;15.35;;;2.63;;
54005;SDS011;39919;38.160;-122.260;2023-04-25T06:16:23;21.02;;;3.47;;
54005;SDS011;39919;38.160;-122.260;2023-04-25T06:18:52;15.68;;;1.60;;
54005;SDS011;39919;38.160;-122.260;2023-04-25T06:21:21;15.10;;;3.20;;
54005;SDS011;39919;38.160;-122.260;2023-04-25T06:23:51;20.38;;;2.30;;
54005;SDS011;39919;38.160;-122.260;2023-04-25T06:26:21;11.90;;;2.28;;
54005;SDS011;39919;38.160;-122.260;2023-04-25T06:28:51;10.48;;;1.70;;
54005;SDS011;39919;38.160;-122.260;2023-04-25T06:31:23;15.05;;;2.47;;
54005;SDS011;39919;38.160;-122.260;2023-04-25T06:33:52;11.52;;;2.40;;
54005;SDS011;39919;38.160;-122.260;2023-04-25T06:36:22;19.25;;;3.38;;
54005;SDS011;39919;38.160;-122.260;2023-04-25T06:38:51;10.75;;;1.70;;
54005;SDS011;39919;38.160;-122.260;2023-04-25T06:41:20;19.50;;;2.60;;
54005;SDS011;39919;38.160;-122.260;2023-04-25T06:43:52;17.38;;;2.58;;
54005;SDS011;39919;38.160;-122.260;2023-04-25T06:46:22;19.25;;;2.35;;
54005;SDS011;39919;38.160;-122.260;2023-04-25T06:48:51;21.40;;;2.90;;
54005;SDS011;39919;38.160;-122.260;2023-04-25T06:51:20;27.60;;;4.22;;
54005;SDS011;39919;38.160;-122.260;2023-04-25T06:53:50;29.27;;;3.65;;
54005;SDS011;39919;38.160;-122.260;2023-04-25T06:56:20;30.75;;;4.63;;
54005;SDS011;39919;38.160;-122.260;2023-04-25T06:58:55;26.73;;;3.67;;
54005;SDS011;39919;38.160;-122.260;2023-04-25T07:01:26;19.80;;;2.72;;
54005;SDS011;39919;38.160;-122.260;2023-04-25T07:03:55;21.05;;;3.35;;
54005;SDS011;39919;38.160;-122.260;2023-04-25T07:06:24;15.35;;;2.10;;
54005;SDS011;39919;38.160;-122.260;2023-04-25T07:08:54;23.05;;;4.00;;
54005;SDS011;39919;38.160;-122.260;2023-04-25T07:11:24;17.15;;;2.90;;
54005;SDS011;39919;38.160;-122.260;2023-04-25T07:13:53;18.63;;;1.95;;
54005;SDS011;39919;38.160;-122.260;2023-04-25T07:16:24;32.30;;;3.40;;
54005;SDS011;39919;38.160;-122.260;2023-04-25T07:18:53;15.55;;;1.92;;
54005;SDS011;39919;38.160;-122.260;2023-04-25T07:21:22;16.17;;;2.78;;
54005;SDS011;39919;38.160;-122.260;2023-04-25T07:23:52;20.15;;;2.85;;
54005;SDS011;39919;38.160;-122.260;2023-04-25T07:26:21;21.17;;;3.92;;
54005;SDS011;39919;38.160;-122.260;2023-04-25T07:28:50;11.80;;;1.55;;
54005;SDS011;39919;38.160;-122.260;2023-04-25T07:31:27;17.58;;;2.22;;
54005;SDS011;39919;38.160;-122.260;2023-04-25T07:33:57;18.38;;;2.88;;
54005;SDS011;39919;38.160;-122.260;2023-04-25T07:36:26;19.00;;;2.90;;
54005;SDS011;39919;38.160;-122.260;2023-04-25T07:38:56;23.90;;;3.50;;
54005;SDS011;39919;38.160;-122.260;2023-04-25T07:41:25;19.20;;;2.85;;
54005;SDS011;39919;38.160;-122.260;2023-04-25T07:43:54;20.25;;;3.25;;
54005;SDS011;39919;38.160;-122.260;2023-04-25T07:46:25;31.58;;;4.15;;
54005;SDS011;39919;38.160;-122.260;2023-04-25T07:48:55;27.10;;;3.50;;
54005;SDS011;39919;38.160;-122.260;2023-04-25T07:51:24;32.05;;;4.68;;
54005;SDS011;39919;38.160;-122.260;2023-04-25T07:53:53;28.00;;;4.28;;
54005;SDS011;39919;38.160;-122.260;2023-04-25T07:56:22;21.77;;;3.55;;
54005;SDS011;39919;38.160;-122.260;2023-04-25T07:59:00;37.20;;;5.75;;
54005;SDS011;39919;38.160;-122.260;2023-04-25T08:01:31;27.25;;;4.20;;
54005;SDS011;39919;38.160;-122.260;2023-04-25T08:04:02;31.52;;;5.03;;
54005;SDS011;39919;38.160;-122.260;2023-04-25T08:06:31;19.80;;;3.25;;
54005;SDS011;39919;38.160;-122.260;2023-04-25T08:09:00;23.90;;;3.72;;
54005;SDS011;39919;38.160;-122.260;2023-04-25T08:11:30;28.60;;;4.43;;
54005;SDS011;39919;38.160;-122.260;2023-04-25T08:13:59;20.77;;;3.17;;
54005;SDS011;39919;38.160;-122.260;2023-04-25T08:16:32;31.45;;;3.63;;
54005;SDS011;39919;38.160;-122.260;2023-04-25T08:19:01;29.13;;;2.95;;
54005;SDS011;39919;38.160;-122.260;2023-04-25T08:21:30;19.13;;;2.75;;
54005;SDS011;39919;38.160;-122.260;2023-04-25T08:23:59;19.60;;;2.65;;
54005;SDS011;39919;38.160;-122.260;2023-04-25T08:26:28;16.75;;;2.90;;
54005;SDS011;39919;38.160;-122.260;2023-04-25T08:28:57;12.38;;;1.75;;
54005;SDS011;39919;38.160;-122.260;2023-04-25T08:31:26;17.77;;;2.78;;
54005;SDS011;39919;38.160;-122.260;2023-04-25T08:33:57;17.60;;;2.53;;
54005;SDS011;39919;38.160;-122.260;2023-04-25T08:36:26;14.98;;;1.88;;
54005;SDS011;39919;38.160;-122.260;2023-04-25T08:38:55;14.35;;;2.05;;
54005;SDS011;39919;38.160;-122.260;2023-04-25T08:41:24;10.75;;;1.98;;
54005;SDS011;39919;38.160;-122.260;2023-04-25T08:43:54;9.90;;;1.73;;
54005;SDS011;39919;38.160;-122.260;2023-04-25T08:46:25;12.10;;;1.50;;
54005;SDS011;39919;38.160;-122.260;2023-04-25T08:48:57;12.50;;;1.40;;
54005;SDS011;39919;38.160;-122.260;2023-04-25T08:51:30;20.77;;;2.80;;
54005;SDS011;39919;38.160;-122.260;2023-04-25T08:54:01;12.80;;;1.73;;
54005;SDS011;39919;38.160;-122.260;2023-04-25T08:56:36;7.88;;;1.33;;
54005;SDS011;39919;38.160;-122.260;2023-04-25T08:59:06;9.93;;;1.13;;
54005;SDS011;39919;38.160;-122.260;2023-04-25T09:01:35;10.52;;;2.03;;
54005;SDS011;39919;38.160;-122.260;2023-04-25T09:04:07;13.75;;;2.53;;
54005;SDS011;39919;38.160;-122.260;2023-04-25T09:06:36;13.98;;;1.98;;
54005;SDS011;39919;38.160;-122.260;2023-04-25T09:09:06;17.02;;;2.45;;
54005;SDS011;39919;38.160;-122.260;2023-04-25T09:11:36;13.07;;;2.25;;
54005;SDS011;39919;38.160;-122.260;2023-04-25T09:14:12;9.93;;;1.48;;
54005;SDS011;39919;38.160;-122.260;2023-04-25T09:19:40;10.13;;;1.15;;
54005;SDS011;39919;38.160;-122.260;2023-04-25T09:22:11;19.35;;;2.03;;
54005;SDS011;39919;38.160;-122.260;2023-04-25T09:24:40;15.70;;;1.75;;
54005;SDS011;39919;38.160;-122.260;2023-04-25T09:27:12;11.88;;;1.58;;
54005;SDS011;39919;38.160;-122.260;2023-04-25T09:29:45;15.45;;;2.03;;
54005;SDS011;39919;38.160;-122.260;2023-04-25T09:32:16;21.40;;;2.45;;
54005;SDS011;39919;38.160;-122.260;2023-04-25T09:34:48;22.05;;;2.95;;
54005;SDS011;39919;38.160;-122.260;2023-04-25T09:37:19;23.40;;;2.95;;
54005;SDS011;39919;38.160;-122.260;2023-04-25T09:39:50;18.10;;;3.00;;
54005;SDS011;39919;38.160;-122.260;2023-04-25T09:42:21;18.20;;;2.70;;
54005;SDS011;39919;38.160;-122.260;2023-04-25T09:44:52;23.05;;;3.90;;
54005;SDS011;39919;38.160;-122.260;2023-04-25T09:47:22;21.50;;;3.40;;
54005;SDS011;39919;38.160;-122.260;2023-04-25T09:49:55;14.57;;;2.45;;
54005;SDS011;39919;38.160;-122.260;2023-04-25T09:52:25;34.03;;;3.80;;
54005;SDS011;39919;38.160;-122.260;2023-04-25T09:54:56;19.50;;;2.67;;
54005;SDS011;39919;38.160;-122.260;2023-04-25T09:57:26;21.42;;;3.15;;
54005;SDS011;39919;38.160;-122.260;2023-04-25T09:59:55;21.60;;;3.85;;
54005;SDS011;39919;38.160;-122.260;2023-04-25T10:02:25;25.90;;;3.47;;
54005;SDS011;39919;38.160;-122.260;2023-04-25T10:04:57;22.88;;;3.03;;
54005;SDS011;39919;38.160;-122.260;2023-04-25T10:07:29;30.75;;;4.97;;
54005;SDS011;39919;38.160;-122.260;2023-04-25T10:09:59;30.88;;;3.60;;
54005;SDS011;39919;38.160;-122.260;2023-04-25T10:12:29;24.92;;;3.35;;
54005;SDS011;39919;38.160;-122.260;2023-04-25T10:15:00;25.83;;;4.03;;
54005;SDS011;39919;38.160;-122.260;2023-04-25T10:17:32;29.35;;;3.83;;
54005;SDS011;39919;38.160;-122.260;2023-04-25T10:20:05;25.83;;;3.90;;
54005;SDS011;39919;38.160;-122.260;2023-04-25T10:22:37;26.25;;;3.08;;
54005;SDS011;39919;38.160;-122.260;2023-04-25T10:25:08;34.55;;;4.22;;
54005;SDS011;39919;38.160;-122.260;2023-04-25T10:27:38;25.85;;;4.50;;
54005;SDS011;39919;38.160;-122.260;2023-04-25T10:30:08;16.88;;;2.92;;
54005;SDS011;39919;38.160;-122.260;2023-04-25T10:32:39;30.58;;;5.07;;
54005;SDS011;39919;38.160;-122.260;2023-04-25T10:35:13;22.35;;;3.25;;
54005;SDS011;39919;38.160;-122.260;2023-04-25T10:40:28;32.20;;;5.10;;
54005;SDS011;39919;38.160;-122.260;2023-04-25T10:43:33;21.27;;;2.85;;
54005;SDS011;39919;38.160;-122.260;2023-04-25T10:46:02;14.52;;;2.53;;
54005;SDS011;39919;38.160;-122.260;2023-04-25T10:48:48;16.73;;;3.05;;
54005;SDS011;39919;38.160;-122.260;2023-04-25T10:51:21;20.73;;;3.53;;
54005;SDS011;39919;38.160;-122.260;2023-04-25T10:53:59;23.17;;;4.32;;
54005;SDS011;39919;38.160;-122.260;2023-04-25T10:56:29;30.30;;;3.85;;
54005;SDS011;39919;38.160;-122.260;2023-04-25T10:59:05;34.72;;;4.45;;
54005;SDS011;39919;38.160;-122.260;2023-04-25T11:01:36;29.17;;;3.70;;
54005;SDS011;39919;38.160;-122.260;2023-04-25T11:04:09;30.25;;;4.32;;
54005;SDS011;39919;38.160;-122.260;2023-04-25T11:06:55;36.47;;;4.57;;
54005;SDS011;39919;38.160;-122.260;2023-04-25T11:09:31;40.97;;;4.60;;
54005;SDS011;39919;38.160;-122.260;2023-04-25T11:12:07;30.23;;;4.13;;
54005;SDS011;39919;38.160;-122.260;2023-04-25T11:14:37;34.10;;;5.32;;
54005;SDS011;39919;38.160;-122.260;2023-04-25T11:17:06;13.32;;;2.83;;
54005;SDS011;39919;38.160;-122.260;2023-04-25T11:19:36;13.13;;;2.00;;
54005;SDS011;39919;38.160;-122.260;2023-04-25T11:22:07;24.50;;;3.25;;
54005;SDS011;39919;38.160;-122.260;2023-04-25T11:24:37;24.60;;;4.22;;
54005;SDS011;39919;38.160;-122.260;2023-04-25T11:27:07;34.92;;;3.80;;
54005;SDS011;39919;38.160;-122.260;2023-04-25T11:29:37;39.03;;;5.15;;
54005;SDS011;39919;38.160;-122.260;2023-04-25T11:32:06;29.23;;;3.92;;
54005;SDS011;39919;38.160;-122.260;2023-04-25T11:34:35;21.73;;;3.13;;
54005;SDS011;39919;38.160;-122.260;2023-04-25T11:37:05;28.55;;;3.88;;
54005;SDS011;39919;38.160;-122.260;2023-04-25T11:39:37;16.67;;;2.75;;
54005;SDS011;39919;38.160;-122.260;2023-04-25T11:42:10;35.10;;;3.75;;
54005;SDS011;39919;38.160;-122.260;2023-04-25T11:44:39;22.08;;;2.67;;
54005;SDS011;39919;38.160;-122.260;2023-04-25T11:47:08;21.40;;;2.45;;
54005;SDS011;39919;38.160;-122.260;2023-04-25T11:49:38;17.77;;;2.65;;
54005;SDS011;39919;38.160;-122.260;2023-04-25T11:52:12;29.95;;;3.55;;
54005;SDS011;39919;38.160;-122.260;2023-04-25T11:54:41;21.85;;;3.30;;
54005;SDS011;39919;38.160;-122.260;2023-04-25T11:57:12;23.98;;;3.35;;
54005;SDS011;39919;38.160;-122.260;2023-04-25T11:59:42;23.70;;;3.40;;
54005;SDS011;39919;38.160;-122.260;2023-04-25T12:02:23;13.57;;;1.88;;
54005;SDS011;39919;38.160;-122.260;2023-04-25T12:04:53;25.60;;;3.40;;
54005;SDS011;39919;38.160;-122.260;2023-04-25T12:07:30;24.13;;;4.13;;
54005;SDS011;39919;38.160;-122.260;2023-04-25T12:10:07;15.52;;;2.88;;
54005;SDS011;39919;38.160;-122.260;2023-04-25T12:12:41;18.95;;;2.53;;
54005;SDS011;39919;38.160;-122.260;2023-04-25T12:15:12;26.90;;;3.97;;
54005;SDS011;39919;38.160;-122.260;2023-04-25T12:17:44;21.27;;;2.97;;
54005;SDS011;39919;38.160;-122.260;2023-04-25T12:20:14;21.40;;;3.17;;
54005;SDS011;39919;38.160;-122.260;2023-04-25T12:22:47;23.70;;;4.22;;
54005;SDS011;39919;38.160;-122.260;2023-04-25T12:28:11;27.95;;;3.60;;
54005;SDS011;39919;38.160;-122.260;2023-04-25T12:30:53;19.70;;;3.30;;
54005;SDS011;39919;38.160;-122.260;2023-04-25T12:33:23;32.90;;;3.88;;
54005;SDS011;39919;38.160;-122.260;2023-04-25T12:35:53;13.65;;;2.40;;
54005;SDS011;39919;38.160;-122.260;2023-04-25T12:38:28;21.00;;;2.55;;
54005;SDS011;39919;38.160;-122.260;2023-04-25T12:41:00;20.02;;;2.83;;
54005;SDS011;39919;38.160;-122.260;2023-04-25T12:43:29;30.52;;;3.35;;
54005;SDS011;39919;38.160;-122.260;2023-04-25T12:45:58;21.65;;;3.45;;
54005;SDS011;39919;38.160;-122.260;2023-04-25T12:48:28;21.85;;;3.08;;
54005;SDS011;39919;38.160;-122.260;2023-04-25T12:50:57;18.50;;;2.97;;
54005;SDS011;39919;38.160;-122.260;2023-04-25T12:53:28;22.55;;;2.70;;
54005;SDS011;39919;38.160;-122.260;2023-04-25T12:55:58;17.70;;;2.65;;
54005;SDS011;39919;38.160;-122.260;2023-04-25T12:58:27;22.00;;;2.45;;
54005;SDS011;39919;38.160;-122.260;2023-04-25T13:00:59;21.48;;;2.33;;
54005;SDS011;39919;38.160;-122.260;2023-04-25T13:03:28;25.83;;;3.05;;
54005;SDS011;39919;38.160;-122.260;2023-04-25T13:05:58;18.95;;;2.25;;
54005;SDS011;39919;38.160;-122.260;2023-04-25T13:08:29;24.85;;;3.17;;
54005;SDS011;39919;38.160;-122.260;2023-04-25T13:10:58;25.08;;;2.78;;
54005;SDS011;39919;38.160;-122.260;2023-04-25T13:13:30;22.75;;;2.53;;
54005;SDS011;39919;38.160;-122.260;2023-04-25T13:16:00;12.00;;;2.10;;
54005;SDS011;39919;38.160;-122.260;2023-04-25T13:18:29;22.00;;;3.05;;
54005;SDS011;39919;38.160;-122.260;2023-04-25T13:20:59;21.13;;;3.28;;
54005;SDS011;39919;38.160;-122.260;2023-04-25T13:23:30;19.33;;;2.92;;
54005;SDS011;39919;38.160;-122.260;2023-04-25T13:26:00;11.43;;;2.00;;
54005;SDS011;39919;38.160;-122.260;2023-04-25T13:28:29;25.95;;;2.03;;
54005;SDS011;39919;38.160;-122.260;2023-04-25T13:30:58;15.38;;;2.63;;
54005;SDS011;39919;38.160;-122.260;2023-04-25T13:33:28;15.07;;;1.90;;
54005;SDS011;39919;38.160;-122.260;2023-04-25T13:35:57;18.75;;;2.42;;
54005;SDS011;39919;38.160;-122.260;2023-04-25T13:38:26;22.00;;;3.10;;
54005;SDS011;39919;38.160;-122.260;2023-04-25T13:40:57;26.08;;;3.30;;
54005;SDS011;39919;38.160;-122.260;2023-04-25T13:43:26;27.55;;;3.50;;
54005;SDS011;39919;38.160;-122.260;2023-04-25T13:45:59;28.90;;;3.08;;
54005;SDS011;39919;38.160;-122.260;2023-04-25T13:48:39;28.10;;;3.85;;
54005;SDS011;39919;38.160;-122.260;2023-04-25T13:51:15;15.57;;;2.97;;
54005;SDS011;39919;38.160;-122.260;2023-04-25T13:53:46;24.20;;;4.72;;
54005;SDS011;39919;38.160;-122.260;2023-04-25T13:56:20;28.55;;;4.00;;
54005;SDS011;39919;38.160;-122.260;2023-04-25T13:58:50;24.15;;;3.88;;
54005;SDS011;39919;38.160;-122.260;2023-04-25T14:01:19;21.73;;;3.28;;
54005;SDS011;39919;38.160;-122.260;2023-04-25T14:03:48;17.15;;;2.97;;
54005;SDS011;39919;38.160;-122.260;2023-04-25T14:06:17;31.52;;;3.00;;
54005;SDS011;39919;38.160;-122.260;2023-04-25T14:08:49;30.85;;;3.50;;
54005;SDS011;39919;38.160;-122.260;2023-04-25T14:11:21;30.13;;;3.22;;
54005;SDS011;39919;38.160;-122.260;2023-04-25T14:13:51;27.55;;;4.55;;
54005;SDS011;39919;38.160;-122.260;2023-04-25T14:16:20;22.52;;;2.78;;
54005;SDS011;39919;38.160;-122.260;2023-04-25T14:18:49;24.35;;;3.75;;
54005;SDS011;39919;38.160;-122.260;2023-04-25T14:21:20;15.98;;;3.17;;
54005;SDS011;39919;38.160;-122.260;2023-04-25T14:23:52;20.17;;;3.13;;
54005;SDS011;39919;38.160;-122.260;2023-04-25T14:26:23;21.40;;;3.28;;
54005;SDS011;39919;38.160;-122.260;2023-04-25T14:28:53;20.05;;;2.95;;
54005;SDS011;39919;38.160;-122.260;2023-04-25T14:31:22;15.15;;;1.85;;
54005;SDS011;39919;38.160;-122.260;2023-04-25T14:33:51;12.90;;;1.75;;